sim
Sign-in with your pilot id or email,
or register
Callsign
Passwort

Schedule Details

Flight Number: DLH435
Departure: Chicago O'Hare International Airport (KORD) at 03:25
Arrival: Munich Airport (EDDM) at 11:50
Route: Lufthansa Passenger Schedule. Enter filed route here before submitting Pirep.

Weather Information
Getting current METAR information for KORD 221851Z 23007KT 10SM FEW170 26/12 A3014 RMK AO2 SLP203 T02560122
Getting current METAR information for EDDM 221920Z VRB02KT CAVOK 17/15 Q1010 NOSIG

Schedule Frequency

Route Map